Terminal Aerodrome Forecast
Issued by NWS Buffalo, NY

Home | Current Version | Previous Version | Text Only | Print | Product List | Glossary On
Versions: 1 2 3 4 5 6 7 8 9 10 11 12 13 14 15 16 17 18 19 20 21 22 23 24 25 26 27
000
FTUS41 KBUF 181500 AAA
TAFROC
TAF AMD
KROC 181500Z 1815/1912 21008KT 6SM -RA BR OVC020
     FM181800 22010KT P6SM OVC020
     FM190200 24009KT P6SM -DZ OVC020
     FM191100 23011G21KT P6SM -DZ OVC015=

USA.gov is the U.S. government's official web portal to all federal, state and local government web resources and services.